createdAt,value
2023-01-28T00:00:58.227Z,5.65
2023-01-28T00:03:26.154Z,6.05
2023-01-28T00:06:03.608Z,5.40
2023-01-28T00:08:31.579Z,5.70
2023-01-28T00:11:00.626Z,5.68
2023-01-28T00:13:28.901Z,5.97
2023-01-28T00:15:58.336Z,6.03
2023-01-28T00:18:26.474Z,6.13
2023-01-28T00:20:59.843Z,6.78
2023-01-28T00:23:29.232Z,7.28
2023-01-28T00:25:59.690Z,5.63
2023-01-28T00:28:27.708Z,6.70
2023-01-28T00:30:55.539Z,6.47
2023-01-28T00:33:23.557Z,7.63
2023-01-28T00:36:00.486Z,8.02
2023-01-28T00:38:28.539Z,7.50
2023-01-28T00:40:56.672Z,7.75
2023-01-28T00:43:24.878Z,8.57
2023-01-28T00:45:52.809Z,8.50
2023-01-28T00:48:21.879Z,8.10
2023-01-28T00:50:49.672Z,7.30
2023-01-28T00:53:19.003Z,7.80
2023-01-28T00:55:46.874Z,7.35
2023-01-28T00:58:16.614Z,7.95
2023-01-28T01:00:44.671Z,7.45
2023-01-28T01:03:12.650Z,7.43
2023-01-28T01:05:40.501Z,6.78
2023-01-28T01:08:09.223Z,8.52
2023-01-28T01:10:40.708Z,7.07
2023-01-28T01:13:10.177Z,7.13
2023-01-28T01:15:37.968Z,7.65
2023-01-28T01:18:06.561Z,8.63
2023-01-28T01:20:39.933Z,7.75
2023-01-28T01:23:07.769Z,7.45
2023-01-28T01:25:35.502Z,7.78
2023-01-28T01:28:04.987Z,8.45
2023-01-28T01:30:32.963Z,6.63
2023-01-28T01:33:00.741Z,7.00
2023-01-28T01:35:28.731Z,6.50
2023-01-28T01:37:56.472Z,6.47
2023-01-28T01:40:24.458Z,7.85
2023-01-28T01:42:52.220Z,6.22
2023-01-28T01:45:21.447Z,6.40
2023-01-28T01:47:53.742Z,5.20
2023-01-28T01:50:31.618Z,5.90
2023-01-28T01:53:04.278Z,7.32
2023-01-28T01:55:37.923Z,6.80
2023-01-28T01:58:10.908Z,5.95
2023-01-28T02:00:41.464Z,6.93
2023-01-28T02:03:11.060Z,6.25
2023-01-28T02:05:40.522Z,5.93
2023-01-28T02:08:22.083Z,6.10
2023-01-28T02:10:53.309Z,6.43
2023-01-28T02:13:25.666Z,5.70
2023-01-28T02:15:56.153Z,5.95
2023-01-28T02:18:24.120Z,5.93
2023-01-28T02:21:32.100Z,6.15
2023-01-28T02:24:20.558Z,6.32
2023-01-28T02:27:03.306Z,5.47
2023-01-28T02:29:38.844Z,6.35
2023-01-28T02:32:11.364Z,6.50
2023-01-28T02:34:45.423Z,7.75
2023-01-28T02:37:18.791Z,5.60
2023-01-28T02:39:50.561Z,6.25
2023-01-28T02:42:22.622Z,4.78
2023-01-28T02:44:52.013Z,5.60
2023-01-28T02:47:37.353Z,5.28
2023-01-28T02:50:09.927Z,5.85
2023-01-28T02:53:11.777Z,5.77
2023-01-28T02:55:44.676Z,5.30
2023-01-28T02:58:19.869Z,7.40
2023-01-28T03:00:55.379Z,6.60
2023-01-28T03:03:29.339Z,6.75
2023-01-28T03:06:06.690Z,8.05
2023-01-28T03:08:57.214Z,7.72
2023-01-28T03:11:43.464Z,8.70
2023-01-28T03:14:30.128Z,9.23
2023-01-28T03:17:20.298Z,9.65
2023-01-28T03:20:06.025Z,9.93
2023-01-28T03:22:56.175Z,10.15
2023-01-28T03:25:45.090Z,9.80
2023-01-28T03:28:35.930Z,10.30
2023-01-28T03:31:25.715Z,11.25
2023-01-28T03:34:17.442Z,12.10
2023-01-28T03:36:53.406Z,14.48
2023-01-28T03:39:40.074Z,12.55
2023-01-28T03:42:12.751Z,14.43
2023-01-28T03:44:50.201Z,13.00
2023-01-28T03:47:19.195Z,12.80
2023-01-28T03:49:51.846Z,12.05
2023-01-28T03:52:24.415Z,12.10
2023-01-28T03:54:56.464Z,13.30
2023-01-28T03:57:26.276Z,13.60
2023-01-28T03:59:55.075Z,13.10
2023-01-28T04:02:25.261Z,12.82
2023-01-28T04:04:55.086Z,12.68
2023-01-28T04:07:22.968Z,12.02
2023-01-28T04:10:23.267Z,12.15
2023-01-28T04:12:56.690Z,12.05
2023-01-28T04:15:26.255Z,11.02
2023-01-28T04:17:55.420Z,12.10
2023-01-28T04:20:31.111Z,10.50
2023-01-28T04:23:00.930Z,11.68
2023-01-28T04:25:29.856Z,10.75
2023-01-28T04:27:58.575Z,11.90
2023-01-28T04:30:29.628Z,11.95
2023-01-28T04:33:08.992Z,10.10
2023-01-28T04:35:48.737Z,11.05
2023-01-28T04:38:25.595Z,12.02
2023-01-28T04:41:13.657Z,10.30
2023-01-28T04:43:41.574Z,10.90
2023-01-28T04:46:38.524Z,11.38
2023-01-28T04:49:22.733Z,9.85
2023-01-28T04:51:54.729Z,11.48
2023-01-28T04:54:46.478Z,10.00
2023-01-28T04:57:15.769Z,11.07
2023-01-28T04:59:43.678Z,12.07
2023-01-28T05:02:11.837Z,11.50
2023-01-28T05:04:40.445Z,11.38
2023-01-28T05:07:11.086Z,11.52
2023-01-28T05:09:38.917Z,10.95
2023-01-28T05:12:07.178Z,9.38
2023-01-28T05:14:37.839Z,9.65
2023-01-28T05:17:07.724Z,11.45
2023-01-28T05:19:36.375Z,10.00
2023-01-28T05:22:05.941Z,11.15
2023-01-28T05:24:42.733Z,12.10
2023-01-28T05:27:11.259Z,10.30
2023-01-28T05:29:39.036Z,10.93
2023-01-28T05:32:07.205Z,10.48
2023-01-28T05:34:34.934Z,12.13
2023-01-28T05:37:08.822Z,9.38
2023-01-28T05:39:38.905Z,11.43
2023-01-28T05:42:08.202Z,11.02
2023-01-28T05:44:40.728Z,9.63
2023-01-28T05:47:23.958Z,10.98
2023-01-28T05:49:56.258Z,10.18
2023-01-28T05:52:44.709Z,10.20
2023-01-28T05:55:24.649Z,9.40
2023-01-28T05:57:53.889Z,8.82
2023-01-28T06:00:24.203Z,9.07
2023-01-28T06:02:52.734Z,10.55
2023-01-28T06:05:21.895Z,11.25
2023-01-28T06:07:50.050Z,10.63
2023-01-28T06:10:18.476Z,9.85
2023-01-28T06:12:47.091Z,10.02
2023-01-28T06:15:35.023Z,10.10
2023-01-28T06:18:24.913Z,10.00
2023-01-28T06:20:53.012Z,9.90
2023-01-28T06:23:20.757Z,10.45
2023-01-28T06:25:48.635Z,11.05
2023-01-28T06:28:17.149Z,10.98
2023-01-28T06:30:49.422Z,11.48
2023-01-28T06:33:17.211Z,11.05
2023-01-28T06:35:45.082Z,10.57
2023-01-28T06:38:13.336Z,9.70
2023-01-28T06:40:41.389Z,10.27
2023-01-28T06:43:09.239Z,10.90
2023-01-28T06:45:36.933Z,10.60
2023-01-28T06:48:08.832Z,9.23
2023-01-28T06:50:36.734Z,10.00
2023-01-28T06:53:04.484Z,10.23
2023-01-28T06:55:32.244Z,11.75
2023-01-28T06:57:59.985Z,11.90
2023-01-28T07:00:27.829Z,9.60
2023-01-28T07:02:57.926Z,11.23
2023-01-28T07:05:27.478Z,9.27
2023-01-28T07:07:55.212Z,9.27
2023-01-28T07:10:23.242Z,9.73
2023-01-28T07:12:51.003Z,10.82
2023-01-28T07:15:18.937Z,9.30
2023-01-28T07:17:47.048Z,9.73
2023-01-28T07:20:16.442Z,11.40
2023-01-28T07:22:46.296Z,10.70
2023-01-28T07:25:15.400Z,10.52
2023-01-28T07:27:48.893Z,10.23
2023-01-28T07:30:17.392Z,10.60
2023-01-28T07:32:45.475Z,9.65
2023-01-28T07:35:14.194Z,11.00
2023-01-28T07:37:41.885Z,9.65
2023-01-28T07:40:12.701Z,9.70
2023-01-28T07:42:41.099Z,11.73
2023-01-28T07:45:11.850Z,11.60
2023-01-28T07:47:39.676Z,9.82
2023-01-28T07:50:08.114Z,10.35
2023-01-28T07:52:44.119Z,11.20
2023-01-28T07:55:15.402Z,10.05
2023-01-28T07:57:50.570Z,9.48
2023-01-28T08:00:19.343Z,9.25
2023-01-28T08:02:48.247Z,10.73
2023-01-28T08:05:18.299Z,11.43
2023-01-28T08:07:48.369Z,11.82
2023-01-28T08:10:18.926Z,10.30
2023-01-28T08:12:54.496Z,8.63
2023-01-28T08:15:22.906Z,9.35
2023-01-28T08:17:50.760Z,9.27
2023-01-28T08:20:18.941Z,9.38
2023-01-28T08:22:46.735Z,9.50
2023-01-28T08:25:14.809Z,10.90
2023-01-28T08:27:43.979Z,12.38
2023-01-28T08:30:13.298Z,11.45
2023-01-28T08:32:41.355Z,11.18
2023-01-28T08:35:09.710Z,10.70
2023-01-28T08:37:37.498Z,11.38
2023-01-28T08:40:06.320Z,11.00
2023-01-28T08:42:34.057Z,11.05
2023-01-28T08:45:03.755Z,11.90
2023-01-28T08:47:31.511Z,11.93
2023-01-28T08:49:59.312Z,10.95
2023-01-28T08:52:27.076Z,12.55
2023-01-28T08:54:54.942Z,10.63
2023-01-28T08:57:22.707Z,12.68
2023-01-28T08:59:50.564Z,13.18
2023-01-28T09:02:31.040Z,12.02
2023-01-28T09:05:00.398Z,12.50
2023-01-28T09:07:28.305Z,11.88
2023-01-28T09:09:56.133Z,11.05
2023-01-28T09:12:24.089Z,10.98
2023-01-28T09:14:52.168Z,11.38
2023-01-28T09:17:21.404Z,12.60
2023-01-28T09:19:50.047Z,10.68
2023-01-28T09:22:18.343Z,10.77
2023-01-28T09:24:46.334Z,11.18
2023-01-28T09:27:14.268Z,11.18
2023-01-28T09:29:42.107Z,11.85
2023-01-28T09:32:09.935Z,11.02
2023-01-28T09:34:39.323Z,11.40
2023-01-28T09:37:07.141Z,11.18
2023-01-28T09:39:35.010Z,11.38
2023-01-28T09:42:20.649Z,10.77
2023-01-28T09:45:01.088Z,12.05
2023-01-28T09:47:33.660Z,11.85
2023-01-28T09:50:07.129Z,10.23
2023-01-28T09:52:38.264Z,12.00
2023-01-28T09:55:08.304Z,9.68
2023-01-28T09:57:42.131Z,10.65
2023-01-28T10:00:16.290Z,9.93
2023-01-28T10:03:00.502Z,9.23
2023-01-28T10:05:39.925Z,11.13
2023-01-28T10:08:26.547Z,11.07
2023-01-28T10:11:03.384Z,10.15
2023-01-28T10:13:44.762Z,10.88
2023-01-28T10:16:25.345Z,10.18
2023-01-28T10:18:57.424Z,11.43
2023-01-28T10:21:34.660Z,14.18
2023-01-28T10:24:08.092Z,14.45
2023-01-28T10:26:45.347Z,11.63
2023-01-28T10:29:17.773Z,11.68
2023-01-28T10:31:53.327Z,9.85
2023-01-28T10:34:21.615Z,13.73
2023-01-28T10:36:52.441Z,12.63
2023-01-28T10:39:22.726Z,12.77
2023-01-28T10:41:57.864Z,12.93
2023-01-28T10:44:33.613Z,11.48
2023-01-28T10:47:05.908Z,12.88
2023-01-28T10:49:42.958Z,13.75
2023-01-28T10:52:16.420Z,14.80
2023-01-28T10:54:44.271Z,13.73
2023-01-28T10:57:16.143Z,14.88
2023-01-28T10:59:44.395Z,12.98
2023-01-28T11:02:32.229Z,14.88
2023-01-28T11:05:07.168Z,14.32
2023-01-28T11:07:36.379Z,12.80
2023-01-28T11:10:04.347Z,13.88
2023-01-28T11:12:32.534Z,13.48
2023-01-28T11:15:02.142Z,11.93
2023-01-28T11:17:32.947Z,13.07
2023-01-28T11:20:10.328Z,12.75
2023-01-28T11:22:42.812Z,15.13
2023-01-28T11:25:19.313Z,13.55
2023-01-28T11:27:49.565Z,13.80
2023-01-28T11:30:24.558Z,13.32
2023-01-28T11:33:00.302Z,13.75
2023-01-28T11:35:30.936Z,13.45
2023-01-28T11:38:01.423Z,13.95
2023-01-28T11:40:29.903Z,13.23
2023-01-28T11:42:59.713Z,13.98
2023-01-28T11:45:39.332Z,13.25
2023-01-28T11:48:22.787Z,13.20
2023-01-28T11:54:06.149Z,12.43
2023-01-28T11:57:02.653Z,13.30
2023-01-28T11:59:56.016Z,13.73
2023-01-28T12:02:40.127Z,14.55
2023-01-28T12:05:20.527Z,14.57
2023-01-28T12:07:55.530Z,14.93
2023-01-28T12:10:32.992Z,13.50
2023-01-28T12:13:21.502Z,13.73
2023-01-28T12:16:19.340Z,14.48
2023-01-28T12:19:12.692Z,15.38
2023-01-28T12:21:54.545Z,16.70
2023-01-28T12:24:37.744Z,15.10
2023-01-28T12:29:50.034Z,15.35
2023-01-28T12:32:39.088Z,13.10
2023-01-28T12:35:32.692Z,13.00
2023-01-28T12:38:04.170Z,13.43
2023-01-28T12:40:51.371Z,12.95
2023-01-28T12:43:25.099Z,12.38
2023-01-28T12:45:58.868Z,13.20
2023-01-28T12:48:33.435Z,12.27
2023-01-28T12:51:06.159Z,13.68
2023-01-28T12:53:41.669Z,13.68
2023-01-28T12:56:15.670Z,13.18
2023-01-28T12:58:50.685Z,14.15
2023-01-28T13:01:26.880Z,14.80
2023-01-28T13:03:59.215Z,14.13
2023-01-28T13:06:32.756Z,14.63
2023-01-28T13:09:04.308Z,14.20
2023-01-28T13:11:36.990Z,14.25
2023-01-28T13:14:06.062Z,12.60
2023-01-28T13:16:38.281Z,13.48
2023-01-28T13:19:09.000Z,13.07
2023-01-28T13:21:48.762Z,12.73
2023-01-28T13:24:32.751Z,12.15
2023-01-28T13:27:22.947Z,12.00
2023-01-28T13:30:03.326Z,11.65
2023-01-28T13:32:35.086Z,14.05
2023-01-28T13:35:06.540Z,11.70
2023-01-28T13:37:37.846Z,11.30
2023-01-28T13:40:23.639Z,12.13
2023-01-28T13:43:00.909Z,12.15
2023-01-28T13:45:28.981Z,11.65
2023-01-28T13:48:02.192Z,10.95
2023-01-28T13:50:40.106Z,11.48
2023-01-28T13:53:23.615Z,10.70
2023-01-28T13:55:57.189Z,12.15
2023-01-28T13:59:12.326Z,11.32
2023-01-28T14:01:58.411Z,10.98
2023-01-28T14:05:06.702Z,11.85
2023-01-28T14:07:56.965Z,11.95
2023-01-28T14:10:50.117Z,12.10
2023-01-28T14:13:33.259Z,11.57
2023-01-28T14:16:28.795Z,11.70
2023-01-28T14:19:00.335Z,12.32
2023-01-28T14:21:33.311Z,11.63
2023-01-28T14:26:39.684Z,11.82
2023-01-28T14:29:17.611Z,10.68
2023-01-28T14:31:45.862Z,13.45
2023-01-28T14:34:23.729Z,11.90
2023-01-28T14:36:56.086Z,11.65
2023-01-28T14:39:28.256Z,13.02
2023-01-28T14:41:59.396Z,12.57
2023-01-28T14:44:31.570Z,12.32
2023-01-28T14:47:18.487Z,12.55
2023-01-28T14:50:01.926Z,11.85
2023-01-28T14:52:52.546Z,14.63
2023-01-28T14:55:32.875Z,13.93
2023-01-28T14:58:04.096Z,13.10
2023-01-28T15:00:34.225Z,13.02
2023-01-28T15:03:23.173Z,13.25
2023-01-28T15:06:03.153Z,12.75
2023-01-28T15:08:33.263Z,13.13
2023-01-28T15:11:02.837Z,13.95
2023-01-28T15:13:33.587Z,15.65
2023-01-28T15:16:01.917Z,13.00
2023-01-28T15:18:33.252Z,12.80
2023-01-28T15:21:02.079Z,11.70
2023-01-28T15:23:35.281Z,12.82
2023-01-28T15:26:06.878Z,12.82
2023-01-28T15:28:38.582Z,12.73
2023-01-28T15:31:08.230Z,14.30
2023-01-28T15:33:36.243Z,12.90
2023-01-28T15:36:04.403Z,13.85
2023-01-28T15:38:32.224Z,13.52
2023-01-28T15:41:03.399Z,12.45
2023-01-28T15:43:34.758Z,12.27
2023-01-28T15:46:03.042Z,12.50
2023-01-28T15:48:33.325Z,12.82
2023-01-28T15:51:03.470Z,14.18
2023-01-28T15:53:35.936Z,15.65
2023-01-28T15:56:11.430Z,15.40
2023-01-28T15:58:41.661Z,13.93
2023-01-28T16:01:19.270Z,14.13
2023-01-28T16:03:48.906Z,13.57
2023-01-28T16:06:19.595Z,15.50
2023-01-28T16:08:54.356Z,12.98
2023-01-28T16:11:27.129Z,14.95
2023-01-28T16:13:55.869Z,13.82
2023-01-28T16:16:30.645Z,15.23
2023-01-28T16:18:58.593Z,14.85
2023-01-28T16:21:28.954Z,15.88
2023-01-28T16:24:02.833Z,14.77
2023-01-28T16:26:34.231Z,15.15
2023-01-28T16:29:14.032Z,15.45
2023-01-28T16:31:42.021Z,15.60
2023-01-28T16:34:11.861Z,17.70
2023-01-28T16:36:39.729Z,16.52
2023-01-28T16:39:07.531Z,16.70
2023-01-28T16:41:43.276Z,17.20
2023-01-28T16:44:14.397Z,17.17
2023-01-28T16:46:42.804Z,17.75
2023-01-28T16:49:11.235Z,18.15
2023-01-28T16:51:42.529Z,18.67
2023-01-28T16:54:14.480Z,20.15
2023-01-28T16:56:46.324Z,18.23
2023-01-28T16:59:16.347Z,19.58
2023-01-28T17:01:44.647Z,20.70
2023-01-28T17:04:13.437Z,19.63
2023-01-28T17:06:44.245Z,23.55
2023-01-28T17:09:12.938Z,24.15
2023-01-28T17:11:41.256Z,23.13
2023-01-28T17:14:11.150Z,24.00
2023-01-28T17:16:39.152Z,23.58
2023-01-28T17:19:07.457Z,25.58
2023-01-28T17:21:35.462Z,23.42
2023-01-28T17:24:03.612Z,26.65
2023-01-28T17:26:33.831Z,28.58
2023-01-28T17:29:02.072Z,26.73
2023-01-28T17:31:31.373Z,26.92
2023-01-28T17:34:00.039Z,28.75
2023-01-28T17:36:29.010Z,30.73
2023-01-28T17:38:56.873Z,29.00
2023-01-28T17:41:24.756Z,28.48
2023-01-28T17:43:53.642Z,31.80
2023-01-28T17:46:23.386Z,31.88
2023-01-28T17:48:52.927Z,29.90
2023-01-28T17:51:20.896Z,30.10
2023-01-28T17:53:50.058Z,29.13
2023-01-28T17:56:19.009Z,30.70
2023-01-28T17:58:50.690Z,31.52
2023-01-28T18:01:18.606Z,31.48
2023-01-28T18:03:46.524Z,30.20
2023-01-28T18:06:15.940Z,32.50
2023-01-28T18:08:43.801Z,33.30
2023-01-28T18:11:13.032Z,33.80
2023-01-28T18:13:41.643Z,33.13
2023-01-28T18:16:14.422Z,35.20
2023-01-28T18:18:42.397Z,33.72
2023-01-28T18:21:21.773Z,31.50
2023-01-28T18:23:51.799Z,36.25
2023-01-28T18:26:19.561Z,33.35
2023-01-28T18:28:48.365Z,33.30
2023-01-28T18:31:16.393Z,33.50
2023-01-28T18:33:44.407Z,34.13
2023-01-28T18:36:12.667Z,36.00
2023-01-28T18:38:41.900Z,33.20
2023-01-28T18:41:09.931Z,36.38
2023-01-28T18:43:37.770Z,33.85
2023-01-28T18:46:12.555Z,34.05
2023-01-28T18:48:40.816Z,34.45
2023-01-28T18:51:17.440Z,36.28
2023-01-28T18:53:59.259Z,31.73
2023-01-28T18:56:27.250Z,35.45
2023-01-28T18:58:58.396Z,36.70
2023-01-28T19:01:27.187Z,33.58
2023-01-28T19:03:55.175Z,34.00
2023-01-28T19:06:23.134Z,35.50
2023-01-28T19:08:53.893Z,34.58
2023-01-28T19:11:23.848Z,35.30
2023-01-28T19:13:52.128Z,36.15
2023-01-28T19:16:20.637Z,38.47
2023-01-28T19:18:52.827Z,34.05
2023-01-28T19:21:30.098Z,35.25
2023-01-28T19:23:59.733Z,34.25
2023-01-28T19:26:28.843Z,35.60
2023-01-28T19:28:56.955Z,36.45
2023-01-28T19:31:25.973Z,35.30
2023-01-28T19:33:59.422Z,35.08
2023-01-28T19:36:31.441Z,35.90
2023-01-28T19:39:00.110Z,34.60
2023-01-28T19:41:28.452Z,38.17
2023-01-28T19:43:57.413Z,41.30
2023-01-28T19:46:25.833Z,38.28
2023-01-28T19:48:54.002Z,42.70
2023-01-28T19:51:21.881Z,46.28
2023-01-28T19:53:52.732Z,44.85
2023-01-28T19:56:22.010Z,44.08
2023-01-28T19:58:50.416Z,48.78
2023-01-28T20:01:20.908Z,44.85
2023-01-28T20:03:52.711Z,42.63
2023-01-28T20:06:21.163Z,46.30
2023-01-28T20:08:54.267Z,49.85
2023-01-28T20:11:23.339Z,43.88
2023-01-28T20:13:52.616Z,43.42
2023-01-28T20:16:23.220Z,38.25
2023-01-28T20:18:51.845Z,41.50
2023-01-28T20:21:20.681Z,37.58
2023-01-28T20:23:49.471Z,39.70
2023-01-28T20:26:21.146Z,42.00
2023-01-28T20:28:49.709Z,40.25
2023-01-28T20:31:18.287Z,42.50
2023-01-28T20:33:46.568Z,45.97
2023-01-28T20:36:15.616Z,41.75
2023-01-28T20:38:45.415Z,37.67
2023-01-28T20:41:15.643Z,39.60
2023-01-28T20:43:45.904Z,44.20
2023-01-28T20:46:16.498Z,41.50
2023-01-28T20:48:44.731Z,42.47
2023-01-28T20:51:17.788Z,37.33
2023-01-28T20:56:16.801Z,38.67
2023-01-28T20:58:46.572Z,36.40
2023-01-28T21:01:18.580Z,37.50
2023-01-28T21:03:47.096Z,39.37
2023-01-28T21:06:15.536Z,40.80
2023-01-28T21:08:43.816Z,35.60
2023-01-28T21:11:12.884Z,39.75
2023-01-28T21:13:40.891Z,39.13
2023-01-28T21:16:10.494Z,41.10
2023-01-28T21:18:38.528Z,38.92
2023-01-28T21:21:08.410Z,41.88
2023-01-28T21:23:36.428Z,37.05
2023-01-28T21:26:06.576Z,41.72
2023-01-28T21:28:34.562Z,37.70
2023-01-28T21:31:07.308Z,41.03
2023-01-28T21:33:36.641Z,36.95
2023-01-28T21:36:09.799Z,36.60
2023-01-28T21:38:37.653Z,37.63
2023-01-28T21:41:06.629Z,38.85
2023-01-28T21:43:35.171Z,38.10
2023-01-28T21:46:03.035Z,38.08
2023-01-28T21:48:31.585Z,39.35
2023-01-28T21:51:24.679Z,35.08
2023-01-28T21:53:52.585Z,36.58
2023-01-28T21:56:20.458Z,36.45
2023-01-28T21:59:05.906Z,37.28
2023-01-28T22:01:33.884Z,36.38
2023-01-28T22:04:01.819Z,39.22
2023-01-28T22:06:31.109Z,36.70
2023-01-28T22:08:59.087Z,36.65
2023-01-28T22:11:26.958Z,37.30
2023-01-28T22:13:54.859Z,34.05
2023-01-28T22:16:22.789Z,35.42
2023-01-28T22:18:50.646Z,33.22
2023-01-28T22:21:18.484Z,34.30
2023-01-28T22:23:47.707Z,32.60
2023-01-28T22:26:15.521Z,34.10
2023-01-28T22:28:43.432Z,33.17
2023-01-28T22:31:13.741Z,32.08
2023-01-28T22:33:42.420Z,32.05
2023-01-28T22:36:13.964Z,32.00
2023-01-28T22:38:43.308Z,31.80
2023-01-28T22:41:14.562Z,35.72
2023-01-28T22:43:43.150Z,32.83
2023-01-28T22:46:11.604Z,32.95
2023-01-28T22:48:41.017Z,35.47
2023-01-28T22:51:11.503Z,34.28
2023-01-28T22:53:39.628Z,34.47
2023-01-28T22:56:09.128Z,31.23
2023-01-28T22:58:38.714Z,31.45
2023-01-28T23:01:07.591Z,31.25
2023-01-28T23:03:35.612Z,34.50
2023-01-28T23:06:05.783Z,33.70
2023-01-28T23:08:34.538Z,33.13
2023-01-28T23:11:03.611Z,28.95
2023-01-28T23:13:52.900Z,31.95
2023-01-28T23:16:39.462Z,31.90
2023-01-28T23:19:24.767Z,30.88
2023-01-28T23:22:10.095Z,32.63
2023-01-28T23:24:39.068Z,32.03
2023-01-28T23:27:06.884Z,29.83
2023-01-28T23:29:34.784Z,30.77
2023-01-28T23:32:06.317Z,29.08
2023-01-28T23:34:36.278Z,29.02
2023-01-28T23:37:05.708Z,29.48
2023-01-28T23:39:33.996Z,27.27
2023-01-28T23:42:10.774Z,24.90
2023-01-28T23:44:38.747Z,30.45
2023-01-28T23:47:08.225Z,28.63
2023-01-28T23:49:36.653Z,29.30
2023-01-28T23:52:05.681Z,28.70
2023-01-28T23:54:33.840Z,29.98
2023-01-28T23:57:02.506Z,30.83
2023-01-28T23:59:30.809Z,28.55
